Time;durP1;ratioP1;P1;durP2;ratioP2;P2;SDS_P1;SDS_P2;PMS_P1;PMS_P2;Temp;Humidity;BMP_temperature;BMP_pressure;BME280_temperature;BME280_humidity;BME280_pressure;Samples;Min_cycle;Max_cycle;Signal;HPM_P1;HPM_P2
2023/12/26 00:00:59;;;;;;;;;;;9.40;99.90;;;;;;4983909;28;19930;-77
2023/12/26 00:03:25;;;;;;;;;;;9.50;99.90;;;;;;4966373;28;20012;-77
2023/12/26 00:05:51;;;;;;;;;;;9.40;99.90;;;;;;4961063;28;19929;-77
2023/12/26 00:08:16;;;;;;;;;;;9.40;99.90;;;;;;4949713;28;19932;-76
2023/12/26 00:10:43;;;;;;;;;;;9.40;99.90;;;;;;4984296;28;20408;-76
2023/12/26 00:13:09;;;;;;;;;;;9.40;99.90;;;;;;4947435;28;19937;-76
2023/12/26 00:15:35;;;;;;;;;;;9.50;99.90;;;;;;4983599;28;19995;-76
2023/12/26 00:18:00;;;;;;;;;;;9.50;99.90;;;;;;4975199;28;19925;-77
2023/12/26 00:20:27;;;;;;;;;;;9.50;99.90;;;;;;4957690;28;19932;-75
2023/12/26 00:22:53;;;;;;;;;;;9.50;99.90;;;;;;4974195;28;19925;-75
2023/12/26 00:25:19;;;;;;;;;;;9.50;99.90;;;;;;4955460;28;19936;-75
2023/12/26 00:27:45;;;;;;;;;;;9.50;99.90;;;;;;4949124;28;19925;-74
2023/12/26 00:30:11;;;;;;;;;;;9.50;99.90;;;;;;4978776;28;20661;-74
2023/12/26 00:32:37;;;;;;;;;;;9.60;99.90;;;;;;4946699;28;19925;-75
2023/12/26 00:35:03;;;;;;;;;;;9.50;99.90;;;;;;4971032;28;19921;-75
2023/12/26 00:37:29;;;;;;;;;;;9.50;99.90;;;;;;4950474;28;19933;-76
2023/12/26 00:39:55;;;;;;;;;;;9.60;99.90;;;;;;4980138;28;20287;-76
2023/12/26 00:42:21;;;;;;;;;;;9.60;99.90;;;;;;4986751;28;20602;-75
2023/12/26 00:44:47;;;;;;;;;;;9.60;99.90;;;;;;4976957;28;20273;-76
2023/12/26 00:47:12;;;;;;;;;;;9.60;99.90;;;;;;4977366;28;19928;-77
2023/12/26 00:49:39;;;;;;;;;;;9.70;99.90;;;;;;4971731;28;20026;-77
2023/12/26 00:52:04;;;;;;;;;;;9.60;99.90;;;;;;4977574;28;20024;-77
2023/12/26 00:54:30;;;;;;;;;;;9.60;99.90;;;;;;4981444;28;19924;-76
2023/12/26 00:56:56;;;;;;;;;;;9.70;99.90;;;;;;4978781;28;20490;-77
2023/12/26 00:59:22;;;;;;;;;;;9.70;99.90;;;;;;4934586;28;19929;-77
2023/12/26 01:01:48;;;;;;;;;;;9.70;99.90;;;;;;4979399;28;21041;-77
2023/12/26 01:04:14;;;;;;;;;;;9.70;99.90;;;;;;4946274;28;19929;-76
2023/12/26 01:06:40;;;;;;;;;;;9.60;99.90;;;;;;4993610;28;19936;-75
2023/12/26 01:09:06;;;;;;;;;;;9.70;99.90;;;;;;4931553;28;19940;-76
2023/12/26 01:11:32;;;;;;;;;;;9.60;99.90;;;;;;4971492;28;19929;-76
2023/12/26 01:13:58;;;;;;;;;;;9.60;99.90;;;;;;4952756;28;19929;-75
2023/12/26 01:16:27;;;;;;;;;;;9.70;99.90;;;;;;4973580;28;20448;-76
2023/12/26 01:18:53;;;;;;;;;;;9.60;99.90;;;;;;4948184;28;20456;-74
2023/12/26 01:21:19;;;;;;;;;;;9.70;99.90;;;;;;4972442;28;21047;-76
2023/12/26 01:23:45;;;;;;;;;;;9.70;99.90;;;;;;4935335;28;19924;-73
2023/12/26 01:26:11;;;;;;;;;;;9.60;99.90;;;;;;4978433;28;19929;-74
2023/12/26 01:28:37;;;;;;;;;;;9.70;99.90;;;;;;4946457;28;20051;-73
2023/12/26 01:31:03;;;;;;;;;;;9.70;99.90;;;;;;4980966;28;20055;-74
2023/12/26 01:33:29;;;;;;;;;;;9.70;99.90;;;;;;4949687;28;19936;-73
2023/12/26 01:35:55;;;;;;;;;;;9.70;99.90;;;;;;4984242;28;19941;-73
2023/12/26 01:38:21;;;;;;;;;;;9.70;99.90;;;;;;4947024;28;19925;-73
2023/12/26 01:40:47;;;;;;;;;;;9.70;99.90;;;;;;4975516;28;20421;-74
2023/12/26 01:43:13;;;;;;;;;;;9.70;99.90;;;;;;4950167;28;19925;-74
2023/12/26 01:45:39;;;;;;;;;;;9.70;99.90;;;;;;4971347;28;19936;-75
2023/12/26 01:48:06;;;;;;;;;;;9.70;99.90;;;;;;4951422;28;21002;-73
2023/12/26 01:50:32;;;;;;;;;;;9.60;99.90;;;;;;4974910;28;19928;-74
2023/12/26 01:52:58;;;;;;;;;;;9.60;99.90;;;;;;4972311;28;20156;-73
2023/12/26 01:55:24;;;;;;;;;;;9.70;99.90;;;;;;4955454;28;20318;-73
2023/12/26 01:57:52;;;;;;;;;;;9.70;99.90;;;;;;4958896;28;19924;-74
2023/12/26 02:00:18;;;;;;;;;;;9.70;99.90;;;;;;4978452;28;20012;-73
2023/12/26 02:02:44;;;;;;;;;;;9.60;99.90;;;;;;4981879;28;19933;-73
2023/12/26 02:05:12;;;;;;;;;;;9.70;99.90;;;;;;4982420;28;19925;-73
2023/12/26 02:07:39;;;;;;;;;;;9.70;99.90;;;;;;4983820;28;20483;-72
2023/12/26 02:10:06;;;;;;;;;;;9.70;99.90;;;;;;4974603;28;20407;-73
2023/12/26 02:12:32;;;;;;;;;;;9.70;99.90;;;;;;4945960;28;20043;-73
2023/12/26 02:14:58;;;;;;;;;;;9.70;99.90;;;;;;4962615;28;20919;-73
2023/12/26 02:17:25;;;;;;;;;;;9.70;99.90;;;;;;4956142;28;19940;-73
2023/12/26 02:19:51;;;;;;;;;;;9.70;99.90;;;;;;4963599;28;19925;-73
2023/12/26 02:22:17;;;;;;;;;;;9.60;99.90;;;;;;4976012;28;19932;-74
2023/12/26 02:24:44;;;;;;;;;;;9.60;99.90;;;;;;4933800;28;20207;-75
2023/12/26 02:27:17;;;;;;;;;;;9.60;99.90;;;;;;4977977;28;21025;-73
2023/12/26 02:29:44;;;;;;;;;;;9.60;99.90;;;;;;4963451;28;19964;-74
2023/12/26 02:32:10;;;;;;;;;;;9.70;99.90;;;;;;4992154;28;20573;-74
2023/12/26 02:34:36;;;;;;;;;;;9.70;99.90;;;;;;4933601;28;19932;-73
2023/12/26 02:37:02;;;;;;;;;;;9.70;99.90;;;;;;4980851;28;19952;-74
2023/12/26 02:39:28;;;;;;;;;;;9.60;99.90;;;;;;4943127;28;19929;-75
2023/12/26 02:41:54;;;;;;;;;;;9.60;99.90;;;;;;4985111;28;20003;-73
2023/12/26 02:44:20;;;;;;;;;;;9.60;99.90;;;;;;4951951;28;19925;-73
2023/12/26 02:46:46;;;;;;;;;;;9.60;99.90;;;;;;4979551;28;19936;-74
2023/12/26 02:49:12;;;;;;;;;;;9.60;99.90;;;;;;4953783;28;19970;-73
2023/12/26 02:51:38;;;;;;;;;;;9.60;99.90;;;;;;4973845;28;19932;-73
2023/12/26 02:54:04;;;;;;;;;;;9.50;99.90;;;;;;4949930;28;20063;-74
2023/12/26 02:56:30;;;;;;;;;;;9.50;99.90;;;;;;4977325;28;20018;-73
2023/12/26 02:58:56;;;;;;;;;;;9.50;99.90;;;;;;4949107;28;19929;-72
2023/12/26 03:01:22;;;;;;;;;;;9.40;99.90;;;;;;4977988;28;19948;-72
2023/12/26 03:03:47;;;;;;;;;;;9.40;99.90;;;;;;4967926;28;19932;-73
2023/12/26 03:06:13;;;;;;;;;;;9.40;99.90;;;;;;4983021;28;19929;-74
2023/12/26 03:08:39;;;;;;;;;;;9.40;99.90;;;;;;4950246;28;19928;-73
2023/12/26 03:11:05;;;;;;;;;;;9.40;99.90;;;;;;4973839;28;21134;-72
2023/12/26 03:13:31;;;;;;;;;;;9.40;99.90;;;;;;4940896;28;19929;-73
2023/12/26 03:15:57;;;;;;;;;;;9.40;99.90;;;;;;4976495;28;21043;-74
2023/12/26 03:18:23;;;;;;;;;;;9.40;99.90;;;;;;4963374;28;19931;-73
2023/12/26 03:20:49;;;;;;;;;;;9.30;99.90;;;;;;4967018;28;19940;-72
2023/12/26 03:23:16;;;;;;;;;;;9.40;99.90;;;;;;4959381;28;20771;-74
2023/12/26 03:25:42;;;;;;;;;;;9.40;99.90;;;;;;4980190;28;20463;-73
2023/12/26 03:28:07;;;;;;;;;;;9.30;99.90;;;;;;4945285;28;19929;-72
2023/12/26 03:30:33;;;;;;;;;;;9.30;99.90;;;;;;4979364;28;19929;-72
2023/12/26 03:32:59;;;;;;;;;;;9.30;99.90;;;;;;4951938;28;19928;-73
2023/12/26 03:35:25;;;;;;;;;;;9.30;99.90;;;;;;4978381;28;20513;-73
2023/12/26 03:37:51;;;;;;;;;;;9.20;99.90;;;;;;4947002;28;19965;-73
2023/12/26 03:40:17;;;;;;;;;;;9.10;99.90;;;;;;4968666;28;20379;-74
2023/12/26 03:42:43;;;;;;;;;;;9.00;99.90;;;;;;4981186;28;19972;-74
2023/12/26 03:45:09;;;;;;;;;;;8.90;99.90;;;;;;4976238;28;20637;-73
2023/12/26 03:47:35;;;;;;;;;;;8.80;99.90;;;;;;4948911;28;19943;-73
2023/12/26 03:50:02;;;;;;;;;;;8.70;99.90;;;;;;4960493;28;19924;-73
2023/12/26 03:52:28;;;;;;;;;;;8.60;99.90;;;;;;4947346;28;19929;-73
2023/12/26 03:54:55;;;;;;;;;;;8.50;99.90;;;;;;4974259;28;19925;-73
2023/12/26 03:57:21;;;;;;;;;;;8.50;99.90;;;;;;4964734;28;19932;-74
2023/12/26 03:59:47;;;;;;;;;;;8.40;99.90;;;;;;4970843;28;20533;-73
2023/12/26 04:02:13;;;;;;;;;;;8.40;99.90;;;;;;4977231;28;20446;-72
2023/12/26 04:04:39;;;;;;;;;;;8.40;99.90;;;;;;4946354;28;20593;-73
2023/12/26 04:07:05;;;;;;;;;;;8.30;99.90;;;;;;4976919;28;20402;-74
2023/12/26 04:09:31;;;;;;;;;;;8.20;99.90;;;;;;4930273;28;22349;-73
2023/12/26 04:11:57;;;;;;;;;;;8.10;99.90;;;;;;4976930;28;19925;-74
2023/12/26 04:14:23;;;;;;;;;;;8.20;99.90;;;;;;4957652;28;19936;-74
2023/12/26 04:16:48;;;;;;;;;;;8.30;99.90;;;;;;4975756;28;19951;-73
2023/12/26 04:19:14;;;;;;;;;;;8.30;99.90;;;;;;4948712;28;20339;-73
2023/12/26 04:21:40;;;;;;;;;;;8.20;99.90;;;;;;4973648;28;19940;-73
2023/12/26 04:24:06;;;;;;;;;;;8.20;99.90;;;;;;4950673;28;19949;-73
2023/12/26 04:26:35;;;;;;;;;;;8.20;99.90;;;;;;4978191;28;20404;-73
2023/12/26 04:29:00;;;;;;;;;;;8.10;99.90;;;;;;4973467;28;20020;-73
2023/12/26 04:31:26;;;;;;;;;;;8.00;99.90;;;;;;4981322;28;20031;-72
2023/12/26 04:33:52;;;;;;;;;;;7.90;99.90;;;;;;4945615;28;20094;-74
2023/12/26 04:36:18;;;;;;;;;;;7.90;99.90;;;;;;4969364;28;19925;-73
2023/12/26 04:38:44;;;;;;;;;;;7.90;99.90;;;;;;4941179;28;20059;-73
2023/12/26 04:41:11;;;;;;;;;;;7.80;99.90;;;;;;4968647;28;20773;-73
2023/12/26 04:43:37;;;;;;;;;;;7.80;99.90;;;;;;4950890;28;19925;-73
2023/12/26 04:46:03;;;;;;;;;;;7.80;99.90;;;;;;4973668;28;19955;-73
2023/12/26 04:48:29;;;;;;;;;;;7.80;99.90;;;;;;4952338;28;20826;-74
2023/12/26 04:50:55;;;;;;;;;;;7.80;99.90;;;;;;4985619;28;19936;-73
2023/12/26 04:53:21;;;;;;;;;;;7.90;99.90;;;;;;4942238;28;20031;-72
2023/12/26 04:55:47;;;;;;;;;;;7.80;99.90;;;;;;4965955;28;19925;-73
2023/12/26 04:58:13;;;;;;;;;;;7.80;99.90;;;;;;4963976;28;19979;-73
2023/12/26 05:00:39;;;;;;;;;;;7.80;99.90;;;;;;4986618;28;19925;-72
2023/12/26 05:03:06;;;;;;;;;;;7.80;99.90;;;;;;4972035;28;20540;-73
2023/12/26 05:05:31;;;;;;;;;;;7.70;99.90;;;;;;4969011;28;19929;-72
2023/12/26 05:07:57;;;;;;;;;;;7.80;99.90;;;;;;4951409;28;19940;-73
2023/12/26 05:10:23;;;;;;;;;;;7.80;99.90;;;;;;4979071;28;19960;-72
2023/12/26 05:12:51;;;;;;;;;;;7.80;99.90;;;;;;4950217;28;19925;-72
2023/12/26 05:15:17;;;;;;;;;;;7.80;99.90;;;;;;4964684;28;20410;-72
2023/12/26 05:17:42;;;;;;;;;;;7.80;99.90;;;;;;4952053;28;19941;-72
2023/12/26 05:20:09;;;;;;;;;;;7.80;99.90;;;;;;4984886;28;19959;-69
2023/12/26 05:22:35;;;;;;;;;;;7.90;99.90;;;;;;4951415;28;19925;-70
2023/12/26 05:25:01;;;;;;;;;;;7.90;99.90;;;;;;4960796;28;19928;-69
2023/12/26 05:27:27;;;;;;;;;;;8.00;99.90;;;;;;4982680;28;20635;-69
2023/12/26 05:29:53;;;;;;;;;;;8.00;99.90;;;;;;4961330;28;20446;-69
2023/12/26 05:32:19;;;;;;;;;;;8.10;99.90;;;;;;4974652;28;19944;-69
2023/12/26 05:34:45;;;;;;;;;;;8.10;99.90;;;;;;4958075;28;19925;-70
2023/12/26 05:37:11;;;;;;;;;;;8.10;99.90;;;;;;4979160;28;20586;-69
2023/12/26 05:39:37;;;;;;;;;;;8.10;99.90;;;;;;4957833;28;19931;-69
2023/12/26 05:42:03;;;;;;;;;;;8.10;99.90;;;;;;4977309;28;21027;-69
2023/12/26 05:44:29;;;;;;;;;;;8.20;99.90;;;;;;4954173;28;20030;-69
2023/12/26 05:46:55;;;;;;;;;;;8.20;99.90;;;;;;4980244;28;20775;-70
2023/12/26 05:49:21;;;;;;;;;;;8.20;99.90;;;;;;4975133;28;19939;-70
2023/12/26 05:51:47;;;;;;;;;;;8.20;99.90;;;;;;4994908;28;19925;-69
2023/12/26 05:54:12;;;;;;;;;;;8.30;99.90;;;;;;4959433;28;19925;-69
2023/12/26 05:56:40;;;;;;;;;;;8.30;99.90;;;;;;4979905;28;19925;-69
2023/12/26 05:59:05;;;;;;;;;;;8.40;99.90;;;;;;4949751;28;20495;-69
2023/12/26 06:01:31;;;;;;;;;;;8.40;99.90;;;;;;4977861;28;19947;-69
2023/12/26 06:03:57;;;;;;;;;;;8.50;99.90;;;;;;4939262;28;19925;-69
2023/12/26 06:06:23;;;;;;;;;;;8.50;99.90;;;;;;4978261;28;20300;-72
2023/12/26 06:08:49;;;;;;;;;;;8.50;99.90;;;;;;4950045;28;19925;-73
2023/12/26 06:11:15;;;;;;;;;;;8.60;99.90;;;;;;4970626;28;19925;-72
2023/12/26 06:13:41;;;;;;;;;;;8.70;99.90;;;;;;4938758;28;19967;-72
2023/12/26 06:16:07;;;;;;;;;;;8.70;99.90;;;;;;4977702;28;19983;-71
2023/12/26 06:18:33;;;;;;;;;;;8.70;99.90;;;;;;4953805;28;20478;-72
2023/12/26 06:20:59;;;;;;;;;;;8.60;99.90;;;;;;4973748;28;19947;-72
2023/12/26 06:23:26;;;;;;;;;;;8.70;99.90;;;;;;4943779;28;19932;-71
2023/12/26 06:25:53;;;;;;;;;;;8.70;99.90;;;;;;4977956;28;19960;-72
2023/12/26 06:28:19;;;;;;;;;;;8.70;99.90;;;;;;4954450;28;19929;-73
2023/12/26 06:30:45;;;;;;;;;;;8.70;99.90;;;;;;4978032;28;19940;-72
2023/12/26 06:33:11;;;;;;;;;;;8.70;99.90;;;;;;4944901;28;19924;-71
2023/12/26 06:35:38;;;;;;;;;;;8.60;99.90;;;;;;4973888;28;21013;-72
2023/12/26 06:38:11;;;;;;;;;;;8.60;99.90;;;;;;4950158;28;19925;-72
2023/12/26 06:40:39;;;;;;;;;;;8.50;99.90;;;;;;4974440;28;19937;-72
2023/12/26 06:43:05;;;;;;;;;;;8.60;99.90;;;;;;4965267;28;21057;-72
2023/12/26 06:45:31;;;;;;;;;;;8.60;99.90;;;;;;4978663;28;19929;-72
2023/12/26 06:47:57;;;;;;;;;;;8.60;99.90;;;;;;4951097;28;19987;-71
2023/12/26 06:50:23;;;;;;;;;;;8.60;99.90;;;;;;4964543;28;20602;-72
2023/12/26 06:52:49;;;;;;;;;;;8.50;99.90;;;;;;4969197;28;21909;-72
2023/12/26 06:55:15;;;;;;;;;;;8.60;99.90;;;;;;4977085;28;19936;-72
2023/12/26 06:57:40;;;;;;;;;;;8.60;99.90;;;;;;4956409;28;19929;-71
2023/12/26 07:00:10;;;;;;;;;;;8.60;99.90;;;;;;5004161;28;19933;-71
2023/12/26 07:02:36;;;;;;;;;;;8.60;99.90;;;;;;4951722;28;20002;-72
2023/12/26 07:05:02;;;;;;;;;;;8.60;99.90;;;;;;4991242;28;20001;-71
2023/12/26 07:07:28;;;;;;;;;;;8.60;99.90;;;;;;4966315;28;19933;-71
2023/12/26 07:09:53;;;;;;;;;;;8.60;99.90;;;;;;4978559;28;19951;-72
2023/12/26 07:12:19;;;;;;;;;;;8.60;99.90;;;;;;4972248;28;20978;-71
2023/12/26 07:14:45;;;;;;;;;;;8.60;99.90;;;;;;4958127;28;19929;-72
2023/12/26 07:17:11;;;;;;;;;;;8.50;99.90;;;;;;4977731;28;19928;-71
2023/12/26 07:19:37;;;;;;;;;;;8.60;99.90;;;;;;4957969;28;19928;-69
2023/12/26 07:22:03;;;;;;;;;;;8.60;99.90;;;;;;4976159;28;20044;-68
2023/12/26 07:24:29;;;;;;;;;;;8.50;99.90;;;;;;4948761;28;19929;-68
2023/12/26 07:26:55;;;;;;;;;;;8.50;99.90;;;;;;4978043;28;19954;-68
2023/12/26 07:29:23;;;;;;;;;;;8.50;99.90;;;;;;4942861;28;20542;-69
2023/12/26 07:31:51;;;;;;;;;;;8.40;99.90;;;;;;4978380;28;19925;-68
2023/12/26 07:34:17;;;;;;;;;;;8.40;99.90;;;;;;4977426;28;20455;-68
2023/12/26 07:36:43;;;;;;;;;;;8.40;99.90;;;;;;4976278;28;19925;-68
2023/12/26 07:39:09;;;;;;;;;;;8.40;99.90;;;;;;4953736;28;19936;-69
2023/12/26 07:41:35;;;;;;;;;;;8.40;99.90;;;;;;4978121;28;19940;-69
2023/12/26 07:44:01;;;;;;;;;;;8.40;99.90;;;;;;4946998;28;19929;-68
2023/12/26 07:46:27;;;;;;;;;;;8.40;99.90;;;;;;4972001;28;20517;-69
2023/12/26 07:48:53;;;;;;;;;;;8.30;99.90;;;;;;4946287;28;19937;-69
2023/12/26 07:51:19;;;;;;;;;;;8.30;99.90;;;;;;4977503;28;20919;-69
2023/12/26 07:53:45;;;;;;;;;;;8.30;99.90;;;;;;4948411;28;19924;-71
2023/12/26 07:56:11;;;;;;;;;;;8.30;99.90;;;;;;4980171;28;20933;-68
2023/12/26 07:58:38;;;;;;;;;;;8.40;99.90;;;;;;4961042;28;19925;-68
2023/12/26 08:01:04;;;;;;;;;;;8.30;99.90;;;;;;4947177;28;21187;-68
2023/12/26 08:03:30;;;;;;;;;;;8.40;99.90;;;;;;4936701;28;19929;-69
2023/12/26 08:05:56;;;;;;;;;;;8.40;99.90;;;;;;4970917;28;19929;-69
2023/12/26 08:08:22;;;;;;;;;;;8.40;99.90;;;;;;4944177;28;20028;-68
2023/12/26 08:10:48;;;;;;;;;;;8.40;99.90;;;;;;4960753;28;19925;-69
2023/12/26 08:13:14;;;;;;;;;;;8.40;99.90;;;;;;4949193;28;20220;-68
2023/12/26 08:15:40;;;;;;;;;;;8.40;99.90;;;;;;4981038;28;20574;-69
2023/12/26 08:18:06;;;;;;;;;;;8.40;99.90;;;;;;4946290;28;19936;-68
2023/12/26 08:20:33;;;;;;;;;;;8.40;99.90;;;;;;4976335;28;20368;-68
2023/12/26 08:23:00;;;;;;;;;;;8.40;99.90;;;;;;4949780;28;19929;-68
2023/12/26 08:25:26;;;;;;;;;;;8.40;99.90;;;;;;4966970;28;19929;-69
2023/12/26 08:27:52;;;;;;;;;;;8.40;99.90;;;;;;4940280;28;19933;-69
2023/12/26 08:30:19;;;;;;;;;;;8.30;99.90;;;;;;4985677;28;19925;-68
2023/12/26 08:32:45;;;;;;;;;;;8.40;99.90;;;;;;4947356;28;20513;-72
2023/12/26 08:35:11;;;;;;;;;;;8.40;99.90;;;;;;4980483;28;19932;-72
2023/12/26 08:37:37;;;;;;;;;;;8.40;99.90;;;;;;4966056;28;19925;-73
2023/12/26 08:40:03;;;;;;;;;;;8.40;99.90;;;;;;4972148;28;19924;-73
2023/12/26 08:42:29;;;;;;;;;;;8.40;99.90;;;;;;4951490;28;19951;-72
2023/12/26 08:44:55;;;;;;;;;;;8.40;99.90;;;;;;4973035;28;21075;-73
2023/12/26 08:47:21;;;;;;;;;;;8.40;99.90;;;;;;4971291;28;19948;-73
2023/12/26 08:49:47;;;;;;;;;;;8.40;99.90;;;;;;4998585;28;20115;-72
2023/12/26 08:52:13;;;;;;;;;;;8.40;99.90;;;;;;4981295;28;21074;-71
2023/12/26 08:54:41;;;;;;;;;;;8.50;99.90;;;;;;4983734;28;19929;-72
2023/12/26 08:57:07;;;;;;;;;;;8.50;99.90;;;;;;4977660;28;19929;-72
2023/12/26 08:59:33;;;;;;;;;;;8.50;99.90;;;;;;4958687;28;19940;-72
2023/12/26 09:01:59;;;;;;;;;;;8.50;99.90;;;;;;4978427;28;19932;-72
2023/12/26 09:04:26;;;;;;;;;;;8.50;99.90;;;;;;4945325;28;19925;-71
2023/12/26 09:06:52;;;;;;;;;;;8.50;99.90;;;;;;4979758;28;19944;-71
2023/12/26 09:09:18;;;;;;;;;;;8.50;99.90;;;;;;4957152;28;19948;-72
2023/12/26 09:11:44;;;;;;;;;;;8.50;99.90;;;;;;4978416;28;20043;-71
2023/12/26 09:14:10;;;;;;;;;;;8.50;99.90;;;;;;4944594;28;19925;-72
2023/12/26 09:16:36;;;;;;;;;;;8.50;99.90;;;;;;4981211;28;20039;-72
2023/12/26 09:19:02;;;;;;;;;;;8.40;99.90;;;;;;4957187;28;19929;-72
2023/12/26 09:21:28;;;;;;;;;;;8.50;99.90;;;;;;4980460;28;19929;-68
2023/12/26 09:23:54;;;;;;;;;;;8.60;99.90;;;;;;4955409;28;20398;-68
2023/12/26 09:26:24;;;;;;;;;;;8.50;99.90;;;;;;4980680;28;19951;-72
2023/12/26 09:28:50;;;;;;;;;;;8.50;99.90;;;;;;4949329;28;20063;-71
2023/12/26 09:31:16;;;;;;;;;;;8.60;99.90;;;;;;4975524;28;21127;-72
2023/12/26 09:33:42;;;;;;;;;;;8.60;99.90;;;;;;4943767;28;19933;-72
2023/12/26 09:36:08;;;;;;;;;;;8.60;99.90;;;;;;4972586;28;20623;-72
2023/12/26 09:38:34;;;;;;;;;;;8.60;99.90;;;;;;4950741;28;21161;-72
2023/12/26 09:41:00;;;;;;;;;;;8.70;99.90;;;;;;4987131;28;19925;-71
2023/12/26 09:43:26;;;;;;;;;;;8.70;99.90;;;;;;4967424;28;20741;-71
2023/12/26 09:45:52;;;;;;;;;;;8.70;99.90;;;;;;4980459;28;19936;-71
2023/12/26 09:48:18;;;;;;;;;;;8.70;99.90;;;;;;4948945;28;19929;-72
2023/12/26 09:50:45;;;;;;;;;;;8.80;99.90;;;;;;4978233;28;19998;-72
2023/12/26 09:53:12;;;;;;;;;;;8.70;99.90;;;;;;4945628;28;20532;-72
2023/12/26 09:55:38;;;;;;;;;;;8.80;99.90;;;;;;4975309;28;20765;-71
2023/12/26 09:58:04;;;;;;;;;;;8.80;99.90;;;;;;4953140;28;19928;-69
2023/12/26 10:00:31;;;;;;;;;;;8.90;99.90;;;;;;4971993;28;19999;-68
2023/12/26 10:02:57;;;;;;;;;;;9.00;99.90;;;;;;4948450;28;19925;-68
2023/12/26 10:05:23;;;;;;;;;;;9.00;99.90;;;;;;4975307;28;19924;-67
2023/12/26 10:07:49;;;;;;;;;;;9.10;99.90;;;;;;4950412;28;19956;-68
2023/12/26 10:10:19;;;;;;;;;;;9.00;99.90;;;;;;4989806;28;20912;-68
2023/12/26 10:12:46;;;;;;;;;;;9.00;99.90;;;;;;4969615;28;20386;-68
2023/12/26 10:15:12;;;;;;;;;;;9.00;99.90;;;;;;4992457;28;20506;-68
2023/12/26 10:17:39;;;;;;;;;;;9.00;99.90;;;;;;4950647;28;20556;-67
2023/12/26 10:20:05;;;;;;;;;;;9.00;99.90;;;;;;4983659;28;20206;-68
2023/12/26 10:22:32;;;;;;;;;;;8.90;99.90;;;;;;4946724;28;20525;-67
2023/12/26 10:25:00;;;;;;;;;;;9.00;99.90;;;;;;4981798;28;20259;-67
2023/12/26 10:27:26;;;;;;;;;;;9.00;99.90;;;;;;4950313;28;19929;-67
2023/12/26 10:29:55;;;;;;;;;;;9.00;99.90;;;;;;4975423;28;19929;-67
2023/12/26 10:32:25;;;;;;;;;;;8.90;99.90;;;;;;4966507;28;19925;-68
2023/12/26 10:34:51;;;;;;;;;;;9.00;99.90;;;;;;4997898;28;19925;-69
2023/12/26 10:37:24;;;;;;;;;;;9.10;99.90;;;;;;4979964;28;19925;-68
2023/12/26 10:39:51;;;;;;;;;;;9.20;99.90;;;;;;4931205;28;19929;-68
2023/12/26 10:42:19;;;;;;;;;;;9.20;99.90;;;;;;4977121;28;19925;-68
2023/12/26 10:45:00;;;;;;;;;;;9.20;99.90;;;;;;4977269;28;19924;-68
2023/12/26 10:47:28;;;;;;;;;;;9.20;99.90;;;;;;4946111;28;19929;-68
2023/12/26 10:49:55;;;;;;;;;;;9.20;99.90;;;;;;4974075;28;19925;-67
2023/12/26 10:52:22;;;;;;;;;;;9.20;99.90;;;;;;4959871;28;19932;-67
2023/12/26 10:54:49;;;;;;;;;;;9.20;99.90;;;;;;4974224;28;19940;-67
2023/12/26 10:57:16;;;;;;;;;;;9.20;99.90;;;;;;4970539;28;19940;-68
2023/12/26 13:54:03;;;;;;;;;;;8.50;99.90;;;;;;4963231;28;19925;-70
2023/12/26 13:56:29;;;;;;;;;;;8.40;99.90;;;;;;4979679;28;20025;-70
2023/12/26 13:58:55;;;;;;;;;;;8.40;99.90;;;;;;4975336;28;19924;-70
2023/12/26 14:01:22;;;;;;;;;;;8.40;99.90;;;;;;4985970;28;19931;-70
2023/12/26 14:03:51;;;;;;;;;;;8.30;99.90;;;;;;4952443;28;20444;-71
2023/12/26 14:06:21;;;;;;;;;;;8.70;99.90;;;;;;4973399;28;19946;-71
2023/12/26 14:08:49;;;;;;;;;;;8.70;99.90;;;;;;4973195;28;19928;-67
2023/12/26 14:11:15;;;;;;;;;;;8.50;99.90;;;;;;4985934;28;19925;-69
2023/12/26 14:13:42;;;;;;;;;;;8.40;99.90;;;;;;4955881;28;19924;-67
2023/12/26 14:16:11;;;;;;;;;;;8.40;99.90;;;;;;4981658;28;20048;-67
2023/12/26 14:18:37;;;;;;;;;;;8.50;99.90;;;;;;4956126;28;19924;-68
2023/12/26 14:21:03;;;;;;;;;;;8.50;99.90;;;;;;4978281;28;20049;-68
2023/12/26 14:23:29;;;;;;;;;;;8.50;99.90;;;;;;4966210;28;20432;-67
2023/12/26 14:25:56;;;;;;;;;;;9.00;99.90;;;;;;4988444;28;19951;-67
2023/12/26 14:28:22;;;;;;;;;;;9.40;99.90;;;;;;4952938;28;19940;-67
2023/12/26 14:30:48;;;;;;;;;;;8.70;99.90;;;;;;4984033;28;19932;-67
2023/12/26 14:33:20;;;;;;;;;;;8.40;99.90;;;;;;4953254;28;19925;-67
2023/12/26 14:35:46;;;;;;;;;;;8.20;99.90;;;;;;4985686;28;19931;-68
2023/12/26 14:38:13;;;;;;;;;;;8.10;99.90;;;;;;4947040;28;19925;-66
2023/12/26 14:40:39;;;;;;;;;;;8.10;99.90;;;;;;4976698;28;19924;-67
2023/12/26 14:43:05;;;;;;;;;;;8.00;99.90;;;;;;4953363;28;19924;-66
2023/12/26 14:45:34;;;;;;;;;;;7.90;99.90;;;;;;4978528;28;20256;-67
2023/12/26 14:48:00;;;;;;;;;;;7.80;99.90;;;;;;4951515;28;19951;-68
2023/12/26 14:50:26;;;;;;;;;;;7.80;99.90;;;;;;4979786;28;19925;-72
2023/12/26 14:52:52;;;;;;;;;;;7.70;99.90;;;;;;4947586;28;20399;-71
2023/12/26 14:55:18;;;;;;;;;;;7.70;99.90;;;;;;4965929;28;19939;-71
2023/12/26 14:57:44;;;;;;;;;;;7.60;99.90;;;;;;4950663;28;20005;-71
2023/12/26 15:00:29;;;;;;;;;;;7.50;99.90;;;;;;4998160;28;20058;-70
2023/12/26 15:02:55;;;;;;;;;;;7.50;99.90;;;;;;4960361;28;20311;-70
2023/12/26 15:05:21;;;;;;;;;;;7.40;99.90;;;;;;4990711;28;19925;-70
2023/12/26 15:07:47;;;;;;;;;;;7.40;99.90;;;;;;4953355;28;19925;-68
2023/12/26 15:10:13;;;;;;;;;;;7.40;99.90;;;;;;4985923;28;19929;-67
2023/12/26 15:12:39;;;;;;;;;;;7.30;99.90;;;;;;4973525;28;20287;-66
2023/12/26 15:15:06;;;;;;;;;;;7.30;99.90;;;;;;4965027;28;19975;-66
2023/12/26 15:17:32;;;;;;;;;;;7.20;99.90;;;;;;4951052;28;20810;-68
2023/12/26 15:19:58;;;;;;;;;;;7.10;99.90;;;;;;4964395;28;19925;-67
2023/12/26 15:22:24;;;;;;;;;;;7.10;99.90;;;;;;4953181;28;21015;-71
2023/12/26 15:24:50;;;;;;;;;;;7.10;99.90;;;;;;4986094;28;19931;-70
2023/12/26 15:27:15;;;;;;;;;;;7.00;99.90;;;;;;4979051;28;20023;-70
2023/12/26 15:29:41;;;;;;;;;;;7.10;99.90;;;;;;4965530;28;20412;-70
2023/12/26 15:32:09;;;;;;;;;;;7.10;99.90;;;;;;4981400;28;19936;-71
2023/12/26 15:34:36;;;;;;;;;;;7.20;99.90;;;;;;4948332;28;19952;-70
2023/12/26 15:37:02;;;;;;;;;;;7.20;99.90;;;;;;4978714;28;19929;-69
2023/12/26 15:39:28;;;;;;;;;;;7.20;99.90;;;;;;4949189;28;19929;-70
2023/12/26 15:41:54;;;;;;;;;;;7.20;99.90;;;;;;4977797;28;19940;-70
2023/12/26 15:44:20;;;;;;;;;;;7.20;99.90;;;;;;4956606;28;20222;-70
2023/12/26 15:46:46;;;;;;;;;;;7.10;99.90;;;;;;4978993;28;20610;-70
2023/12/26 15:49:12;;;;;;;;;;;7.10;99.90;;;;;;4943553;28;19948;-70
2023/12/26 15:51:40;;;;;;;;;;;6.90;99.90;;;;;;4978400;28;19929;-70
2023/12/26 15:54:07;;;;;;;;;;;6.90;99.90;;;;;;4935344;28;19925;-70
2023/12/26 15:56:33;;;;;;;;;;;6.90;99.90;;;;;;4974645;28;19929;-70
2023/12/26 15:58:59;;;;;;;;;;;6.80;99.90;;;;;;4949193;28;20942;-71
2023/12/26 16:01:25;;;;;;;;;;;6.70;99.90;;;;;;4979869;28;19932;-71
2023/12/26 16:03:53;;;;;;;;;;;6.80;99.90;;;;;;4955515;28;19995;-71
2023/12/26 16:06:21;;;;;;;;;;;6.70;99.90;;;;;;4984082;28;19924;-70
2023/12/26 16:08:47;;;;;;;;;;;6.70;99.90;;;;;;4947423;28;19929;-69
2023/12/26 16:11:14;;;;;;;;;;;6.70;99.90;;;;;;4977983;28;19929;-70
2023/12/26 16:13:40;;;;;;;;;;;6.60;99.90;;;;;;4965822;28;19959;-70
2023/12/26 16:16:06;;;;;;;;;;;6.60;99.90;;;;;;4982539;28;20391;-70
2023/12/26 16:18:33;;;;;;;;;;;6.60;99.90;;;;;;4954721;28;19929;-68
2023/12/26 16:21:01;;;;;;;;;;;6.50;99.90;;;;;;4984108;28;19932;-65
2023/12/26 16:23:27;;;;;;;;;;;6.50;99.90;;;;;;4953072;28;19936;-67
2023/12/26 16:25:53;;;;;;;;;;;6.40;99.90;;;;;;4974500;28;19925;-67
2023/12/26 16:28:19;;;;;;;;;;;6.40;99.90;;;;;;4965590;28;19925;-67
2023/12/26 16:30:45;;;;;;;;;;;6.30;99.90;;;;;;4992758;28;19931;-66
2023/12/26 16:33:11;;;;;;;;;;;6.30;99.90;;;;;;4949510;28;19929;-68
2023/12/26 16:35:37;;;;;;;;;;;6.30;99.90;;;;;;4976790;28;19932;-67
2023/12/26 16:38:03;;;;;;;;;;;6.30;99.90;;;;;;4950140;28;20570;-67
2023/12/26 16:40:29;;;;;;;;;;;6.20;99.90;;;;;;4978272;28;19930;-67
2023/12/26 16:42:55;;;;;;;;;;;6.20;99.90;;;;;;4964230;28;19925;-68
2023/12/26 16:45:21;;;;;;;;;;;6.20;99.90;;;;;;4978093;28;21098;-67
2023/12/26 16:47:47;;;;;;;;;;;6.10;99.90;;;;;;4967042;28;19936;-67
2023/12/26 16:50:14;;;;;;;;;;;6.10;99.90;;;;;;4969630;28;20407;-66
2023/12/26 16:52:39;;;;;;;;;;;6.10;99.90;;;;;;4947845;28;20404;-66
2023/12/26 16:55:05;;;;;;;;;;;6.00;99.90;;;;;;4977667;28;19925;-67
2023/12/26 16:57:31;;;;;;;;;;;5.90;99.90;;;;;;4953321;28;20813;-67
2023/12/26 16:59:57;;;;;;;;;;;5.90;99.90;;;;;;4990433;28;19925;-67
2023/12/26 17:02:23;;;;;;;;;;;5.90;99.90;;;;;;4971703;28;19929;-71
2023/12/26 17:04:50;;;;;;;;;;;5.90;99.90;;;;;;4976014;28;19925;-70
2023/12/26 17:07:16;;;;;;;;;;;5.90;99.90;;;;;;4981227;28;19925;-71
2023/12/26 17:09:42;;;;;;;;;;;5.80;99.90;;;;;;4955893;28;19936;-69
2023/12/26 17:12:08;;;;;;;;;;;5.80;99.90;;;;;;4981873;28;21163;-70
2023/12/26 17:14:34;;;;;;;;;;;5.70;99.90;;;;;;4950608;28;20004;-70
2023/12/26 17:17:00;;;;;;;;;;;5.60;99.90;;;;;;4981482;28;20030;-70
2023/12/26 17:19:26;;;;;;;;;;;5.60;99.90;;;;;;4949695;28;20446;-70